sensor_id;sensor_type;location;lat;lon;timestamp;P1;durP1;ratioP1;P2;durP2;ratioP2
15194;SDS011;7698;42.478;23.756;2023-05-07T00:01:18;7.53;;;6.82;;
15194;SDS011;7698;42.478;23.756;2023-05-07T00:03:45;6.88;;;6.28;;
15194;SDS011;7698;42.478;23.756;2023-05-07T00:06:13;7.03;;;6.38;;
15194;SDS011;7698;42.478;23.756;2023-05-07T00:08:40;7.38;;;6.78;;
15194;SDS011;7698;42.478;23.756;2023-05-07T00:11:07;7.88;;;7.13;;
15194;SDS011;7698;42.478;23.756;2023-05-07T00:13:34;7.93;;;7.32;;
15194;SDS011;7698;42.478;23.756;2023-05-07T00:16:01;6.82;;;6.22;;
15194;SDS011;7698;42.478;23.756;2023-05-07T00:18:28;8.35;;;7.55;;
15194;SDS011;7698;42.478;23.756;2023-05-07T00:20:55;6.90;;;6.30;;
15194;SDS011;7698;42.478;23.756;2023-05-07T00:23:23;8.38;;;7.72;;
15194;SDS011;7698;42.478;23.756;2023-05-07T00:25:50;7.30;;;6.70;;
15194;SDS011;7698;42.478;23.756;2023-05-07T00:28:17;6.60;;;6.00;;
15194;SDS011;7698;42.478;23.756;2023-05-07T00:30:43;6.38;;;5.88;;
15194;SDS011;7698;42.478;23.756;2023-05-07T00:33:10;6.80;;;6.30;;
15194;SDS011;7698;42.478;23.756;2023-05-07T00:35:37;6.78;;;6.22;;
15194;SDS011;7698;42.478;23.756;2023-05-07T00:38:04;7.00;;;6.40;;
15194;SDS011;7698;42.478;23.756;2023-05-07T00:40:32;6.68;;;6.07;;
15194;SDS011;7698;42.478;23.756;2023-05-07T00:42:59;7.78;;;7.03;;
15194;SDS011;7698;42.478;23.756;2023-05-07T00:45:26;7.75;;;7.05;;
15194;SDS011;7698;42.478;23.756;2023-05-07T00:47:54;8.60;;;7.80;;
15194;SDS011;7698;42.478;23.756;2023-05-07T00:50:21;8.25;;;7.55;;
15194;SDS011;7698;42.478;23.756;2023-05-07T00:52:48;7.22;;;6.63;;
15194;SDS011;7698;42.478;23.756;2023-05-07T00:55:15;7.72;;;7.10;;
15194;SDS011;7698;42.478;23.756;2023-05-07T00:57:43;7.03;;;6.43;;
15194;SDS011;7698;42.478;23.756;2023-05-07T01:00:12;7.75;;;7.05;;
15194;SDS011;7698;42.478;23.756;2023-05-07T01:02:39;7.70;;;7.00;;
15194;SDS011;7698;42.478;23.756;2023-05-07T01:05:06;6.97;;;6.32;;
15194;SDS011;7698;42.478;23.756;2023-05-07T01:07:36;6.35;;;5.85;;
15194;SDS011;7698;42.478;23.756;2023-05-07T01:10:05;6.28;;;5.78;;
15194;SDS011;7698;42.478;23.756;2023-05-07T01:12:33;7.53;;;6.82;;
15194;SDS011;7698;42.478;23.756;2023-05-07T01:15:03;5.95;;;5.45;;
15194;SDS011;7698;42.478;23.756;2023-05-07T01:17:32;6.38;;;5.88;;
15194;SDS011;7698;42.478;23.756;2023-05-07T01:20:00;6.60;;;6.00;;
15194;SDS011;7698;42.478;23.756;2023-05-07T01:22:30;6.20;;;5.70;;
15194;SDS011;7698;42.478;23.756;2023-05-07T01:24:57;7.28;;;6.60;;
15194;SDS011;7698;42.478;23.756;2023-05-07T01:27:25;7.43;;;6.82;;
15194;SDS011;7698;42.478;23.756;2023-05-07T01:29:51;6.60;;;6.00;;
15194;SDS011;7698;42.478;23.756;2023-05-07T01:32:19;9.65;;;8.75;;
15194;SDS011;7698;42.478;23.756;2023-05-07T01:34:53;8.57;;;7.88;;
15194;SDS011;7698;42.478;23.756;2023-05-07T01:37:21;6.32;;;5.82;;
15194;SDS011;7698;42.478;23.756;2023-05-07T01:39:51;8.82;;;8.02;;
15194;SDS011;7698;42.478;23.756;2023-05-07T01:42:18;7.60;;;6.97;;
15194;SDS011;7698;42.478;23.756;2023-05-07T01:44:45;7.05;;;6.55;;
15194;SDS011;7698;42.478;23.756;2023-05-07T01:47:12;5.85;;;5.43;;
15194;SDS011;7698;42.478;23.756;2023-05-07T01:49:40;6.63;;;6.13;;
15194;SDS011;7698;42.478;23.756;2023-05-07T01:52:09;7.97;;;7.30;;
15194;SDS011;7698;42.478;23.756;2023-05-07T01:54:36;7.97;;;7.38;;
15194;SDS011;7698;42.478;23.756;2023-05-07T01:57:04;6.32;;;5.82;;
15194;SDS011;7698;42.478;23.756;2023-05-07T01:59:31;6.63;;;6.03;;
15194;SDS011;7698;42.478;23.756;2023-05-07T02:01:58;7.07;;;6.55;;
15194;SDS011;7698;42.478;23.756;2023-05-07T02:04:25;7.15;;;6.55;;
15194;SDS011;7698;42.478;23.756;2023-05-07T02:06:52;8.40;;;7.75;;
15194;SDS011;7698;42.478;23.756;2023-05-07T02:09:19;8.05;;;7.45;;
15194;SDS011;7698;42.478;23.756;2023-05-07T02:11:46;9.35;;;8.55;;
15194;SDS011;7698;42.478;23.756;2023-05-07T02:14:14;7.25;;;6.75;;
15194;SDS011;7698;42.478;23.756;2023-05-07T02:16:41;8.32;;;7.53;;
15194;SDS011;7698;42.478;23.756;2023-05-07T02:19:08;7.63;;;6.97;;
15194;SDS011;7698;42.478;23.756;2023-05-07T02:21:35;8.80;;;8.13;;
15194;SDS011;7698;42.478;23.756;2023-05-07T02:24:02;8.52;;;7.90;;
15194;SDS011;7698;42.478;23.756;2023-05-07T02:26:29;11.23;;;10.35;;
15194;SDS011;7698;42.478;23.756;2023-05-07T02:28:56;11.30;;;10.43;;
15194;SDS011;7698;42.478;23.756;2023-05-07T02:31:24;11.52;;;10.52;;
15194;SDS011;7698;42.478;23.756;2023-05-07T02:33:50;8.45;;;7.75;;
15194;SDS011;7698;42.478;23.756;2023-05-07T02:36:17;9.27;;;8.55;;
15194;SDS011;7698;42.478;23.756;2023-05-07T02:38:44;11.38;;;10.48;;
15194;SDS011;7698;42.478;23.756;2023-05-07T02:41:11;10.90;;;10.00;;
15194;SDS011;7698;42.478;23.756;2023-05-07T02:43:37;11.55;;;10.55;;
15194;SDS011;7698;42.478;23.756;2023-05-07T02:46:05;11.48;;;10.57;;
15194;SDS011;7698;42.478;23.756;2023-05-07T02:48:34;10.07;;;9.20;;
15194;SDS011;7698;42.478;23.756;2023-05-07T02:51:01;9.85;;;9.00;;
15194;SDS011;7698;42.478;23.756;2023-05-07T02:53:30;8.95;;;8.15;;
15194;SDS011;7698;42.478;23.756;2023-05-07T02:55:58;9.20;;;8.50;;
15194;SDS011;7698;42.478;23.756;2023-05-07T02:58:26;9.88;;;9.05;;
15194;SDS011;7698;42.478;23.756;2023-05-07T03:00:53;10.32;;;9.55;;
15194;SDS011;7698;42.478;23.756;2023-05-07T03:03:20;10.57;;;9.68;;
15194;SDS011;7698;42.478;23.756;2023-05-07T03:05:49;10.90;;;9.90;;
15194;SDS011;7698;42.478;23.756;2023-05-07T03:08:15;8.00;;;7.40;;
15194;SDS011;7698;42.478;23.756;2023-05-07T03:10:42;8.40;;;7.70;;
15194;SDS011;7698;42.478;23.756;2023-05-07T03:13:09;9.75;;;8.95;;
15194;SDS011;7698;42.478;23.756;2023-05-07T03:15:36;9.13;;;8.38;;
15194;SDS011;7698;42.478;23.756;2023-05-07T03:18:03;9.98;;;9.23;;
15194;SDS011;7698;42.478;23.756;2023-05-07T03:20:30;10.25;;;9.32;;
15194;SDS011;7698;42.478;23.756;2023-05-07T03:22:58;9.23;;;8.52;;
15194;SDS011;7698;42.478;23.756;2023-05-07T03:25:25;10.02;;;9.23;;
15194;SDS011;7698;42.478;23.756;2023-05-07T03:27:51;11.32;;;10.45;;
15194;SDS011;7698;42.478;23.756;2023-05-07T03:30:18;12.20;;;11.10;;
15194;SDS011;7698;42.478;23.756;2023-05-07T03:32:45;13.13;;;11.90;;
15194;SDS011;7698;42.478;23.756;2023-05-07T03:35:12;13.48;;;12.27;;
15194;SDS011;7698;42.478;23.756;2023-05-07T03:37:39;14.18;;;13.02;;
15194;SDS011;7698;42.478;23.756;2023-05-07T03:40:08;13.98;;;12.60;;
15194;SDS011;7698;42.478;23.756;2023-05-07T03:42:37;12.98;;;11.90;;
15194;SDS011;7698;42.478;23.756;2023-05-07T03:45:04;13.88;;;12.68;;
15194;SDS011;7698;42.478;23.756;2023-05-07T03:47:31;12.35;;;11.45;;
15194;SDS011;7698;42.478;23.756;2023-05-07T03:49:58;14.13;;;12.90;;
15194;SDS011;7698;42.478;23.756;2023-05-07T03:52:25;12.43;;;11.35;;
15194;SDS011;7698;42.478;23.756;2023-05-07T03:54:52;13.43;;;12.32;;
15194;SDS011;7698;42.478;23.756;2023-05-07T03:57:20;13.75;;;12.63;;
15194;SDS011;7698;42.478;23.756;2023-05-07T03:59:47;12.02;;;10.93;;
15194;SDS011;7698;42.478;23.756;2023-05-07T04:02:14;12.98;;;11.88;;
15194;SDS011;7698;42.478;23.756;2023-05-07T04:04:41;14.65;;;13.25;;
15194;SDS011;7698;42.478;23.756;2023-05-07T04:07:07;13.02;;;11.88;;
15194;SDS011;7698;42.478;23.756;2023-05-07T04:09:35;14.32;;;13.10;;
15194;SDS011;7698;42.478;23.756;2023-05-07T04:12:01;14.77;;;13.55;;
15194;SDS011;7698;42.478;23.756;2023-05-07T04:14:30;16.35;;;15.02;;
15194;SDS011;7698;42.478;23.756;2023-05-07T04:16:57;19.58;;;17.88;;
15194;SDS011;7698;42.478;23.756;2023-05-07T04:19:24;32.00;;;28.50;;
15194;SDS011;7698;42.478;23.756;2023-05-07T04:21:51;46.92;;;41.90;;
15194;SDS011;7698;42.478;23.756;2023-05-07T04:24:18;35.72;;;31.95;;
15194;SDS011;7698;42.478;23.756;2023-05-07T04:26:45;32.60;;;29.55;;
15194;SDS011;7698;42.478;23.756;2023-05-07T04:29:12;23.70;;;21.30;;
15194;SDS011;7698;42.478;23.756;2023-05-07T04:31:40;18.90;;;17.00;;
15194;SDS011;7698;42.478;23.756;2023-05-07T04:34:09;16.23;;;14.82;;
15194;SDS011;7698;42.478;23.756;2023-05-07T04:36:36;15.75;;;14.15;;
15194;SDS011;7698;42.478;23.756;2023-05-07T04:39:03;12.85;;;11.77;;
15194;SDS011;7698;42.478;23.756;2023-05-07T04:41:31;10.18;;;9.25;;
15194;SDS011;7698;42.478;23.756;2023-05-07T04:43:58;10.50;;;9.50;;
15194;SDS011;7698;42.478;23.756;2023-05-07T04:46:25;9.80;;;9.07;;
15194;SDS011;7698;42.478;23.756;2023-05-07T04:48:53;8.93;;;8.23;;
15194;SDS011;7698;42.478;23.756;2023-05-07T04:51:20;8.85;;;8.07;;
15194;SDS011;7698;42.478;23.756;2023-05-07T04:53:47;7.63;;;7.13;;
15194;SDS011;7698;42.478;23.756;2023-05-07T04:56:14;7.78;;;7.07;;
15194;SDS011;7698;42.478;23.756;2023-05-07T04:58:40;7.18;;;6.55;;
15194;SDS011;7698;42.478;23.756;2023-05-07T05:01:07;7.50;;;6.90;;
15194;SDS011;7698;42.478;23.756;2023-05-07T05:03:34;7.47;;;6.85;;
15194;SDS011;7698;42.478;23.756;2023-05-07T05:06:03;5.55;;;5.15;;
15194;SDS011;7698;42.478;23.756;2023-05-07T05:08:29;4.82;;;4.43;;
15194;SDS011;7698;42.478;23.756;2023-05-07T05:10:56;6.78;;;6.03;;
15194;SDS011;7698;42.478;23.756;2023-05-07T05:13:23;6.05;;;5.50;;
15194;SDS011;7698;42.478;23.756;2023-05-07T05:15:50;5.95;;;5.35;;
15194;SDS011;7698;42.478;23.756;2023-05-07T05:18:17;5.80;;;5.43;;
15194;SDS011;7698;42.478;23.756;2023-05-07T05:20:44;5.47;;;5.00;;
15194;SDS011;7698;42.478;23.756;2023-05-07T05:23:12;5.00;;;4.60;;
15194;SDS011;7698;42.478;23.756;2023-05-07T05:25:39;6.03;;;5.45;;
15194;SDS011;7698;42.478;23.756;2023-05-07T05:28:05;4.55;;;4.25;;
15194;SDS011;7698;42.478;23.756;2023-05-07T05:30:32;5.47;;;5.07;;
15194;SDS011;7698;42.478;23.756;2023-05-07T05:32:59;5.40;;;4.97;;
15194;SDS011;7698;42.478;23.756;2023-05-07T05:35:26;4.93;;;4.60;;
15194;SDS011;7698;42.478;23.756;2023-05-07T05:37:53;5.43;;;5.03;;
15194;SDS011;7698;42.478;23.756;2023-05-07T05:40:21;5.35;;;4.95;;
15194;SDS011;7698;42.478;23.756;2023-05-07T05:42:48;7.75;;;5.75;;
15194;SDS011;7698;42.478;23.756;2023-05-07T05:45:15;5.78;;;5.32;;
15194;SDS011;7698;42.478;23.756;2023-05-07T05:47:42;5.18;;;4.78;;
15194;SDS011;7698;42.478;23.756;2023-05-07T05:50:09;6.15;;;5.47;;
15194;SDS011;7698;42.478;23.756;2023-05-07T05:52:36;5.57;;;5.07;;
15194;SDS011;7698;42.478;23.756;2023-05-07T05:55:03;6.18;;;5.68;;
15194;SDS011;7698;42.478;23.756;2023-05-07T05:57:32;5.47;;;5.07;;
15194;SDS011;7698;42.478;23.756;2023-05-07T05:59:59;5.40;;;5.00;;
15194;SDS011;7698;42.478;23.756;2023-05-07T06:02:27;5.53;;;5.10;;
15194;SDS011;7698;42.478;23.756;2023-05-07T06:04:54;7.72;;;4.78;;
15194;SDS011;7698;42.478;23.756;2023-05-07T06:07:21;4.65;;;4.22;;
15194;SDS011;7698;42.478;23.756;2023-05-07T06:09:48;4.82;;;4.40;;
15194;SDS011;7698;42.478;23.756;2023-05-07T06:12:14;3.83;;;3.50;;
15194;SDS011;7698;42.478;23.756;2023-05-07T06:14:43;3.47;;;3.28;;
15194;SDS011;7698;42.478;23.756;2023-05-07T06:17:10;5.22;;;4.35;;
15194;SDS011;7698;42.478;23.756;2023-05-07T06:19:37;5.47;;;4.97;;
15194;SDS011;7698;42.478;23.756;2023-05-07T06:22:04;3.80;;;3.50;;
15194;SDS011;7698;42.478;23.756;2023-05-07T06:24:31;4.20;;;3.90;;
15194;SDS011;7698;42.478;23.756;2023-05-07T06:26:57;5.05;;;4.65;;
15194;SDS011;7698;42.478;23.756;2023-05-07T06:29:24;5.00;;;4.05;;
15194;SDS011;7698;42.478;23.756;2023-05-07T06:31:53;3.78;;;3.38;;
15194;SDS011;7698;42.478;23.756;2023-05-07T06:34:20;4.40;;;3.88;;
15194;SDS011;7698;42.478;23.756;2023-05-07T06:36:47;4.57;;;4.20;;
15194;SDS011;7698;42.478;23.756;2023-05-07T06:39:13;4.13;;;3.83;;
15194;SDS011;7698;42.478;23.756;2023-05-07T06:41:40;4.45;;;3.83;;
15194;SDS011;7698;42.478;23.756;2023-05-07T06:44:07;4.82;;;4.43;;
15194;SDS011;7698;42.478;23.756;2023-05-07T06:46:34;4.47;;;4.10;;
